Airfield :
LOGIN :

Register | Disclaimer

   EN    FR    IT 

 










Legend :    VFR   Marginal VFR   IFR   Intensive IFR   Very Intensive IFR
Visi :
Ceiling :
>= 8 km
>= 3000ft
5 to 8 km
1000 to 3000 ft
1500m to 5 km
500 to 1000 ft
800 to 1500m
200 to 500 ft
< 800m
< 200 ft
Symbols :   Thunderstorms  Fog  Heavy snow  Heavy precipitations  Wind > 20 kt
SIGMETs :     Misc.  Thunderstorms  Icing  Turbulence  Mountain Waves  Volcanic Ashes






- Airport Elevation : 74 ft
- IATA code : LRH


LFBH - La Rochelle Ile de Ré

CURRENT METAR :
  • 102130Z AUTO 18012KT 9999 BKN048 BKN072 OVC086 09/07 Q1019 TEMPO BKN006

EXPIRED METARs :
  • 102100Z AUTO 16016KT CAVOK 09/07 Q1019 TEMPO BKN006
  • 102030Z AUTO 16018KT 9999 ///TCU 09/07 Q1019 TEMPO BKN006
  • 102000Z AUTO 17011KT 9999 ///TCU 10/07 Q1020 TEMPO BKN006
  • 101930Z AUTO 17013KT 9999 ///TCU 10/07 Q1020 TEMPO BKN006
  • 101900Z AUTO 17014KT 9999 FEW018/// SCT048/// BKN056/// ///TCU 10/07 Q1020 TEMPO BKN006

TAF AMD TAF LFBH
Valid from the 10 at 18:00 until the 11 at 18:00 UTC


101830Z 1018/1118 17015KT 9999 OVC020
PROB30
TEMPO 1019/1101 -RA BKN006
TEMPO 1101/1106 23015G25KT 3000 RA BKN005
BECMG 1106/1108 32010KT
TEMPO 1108/1112 SHRA BKN020TCU
TEMPO 1112/1118 28020G40KT 3000 SHRA BKN020CB
ATIS : +33 5 46 00 13 92



MET'MAP, your aeronautical weather chart ! - Copyright ORBIFLY December 2007 - Disclaimer

ORBIFLY MET'MAP TEAM :

Programming & Development : Alexandra Zaïnal
Concept & original design : Baudouin d'Aumeries
Assistance for programming : Marc-Olivier Méhu
Technical & hardware support : Manuel Goepfert

Contact : metmap@orbifly.com




SOURCES & CREDITS :

   NOAA